Friday, November 17, 2017, 4:11 PM EST
Back to Local

KIZG, Fryeburg Eastern Slopes Rgnl

Location: Fryeburg, ME, United States Lat: 43.983
Local Time: 4:11 PM EST (21:11 GMT) Lon: -70.95
Time Zone: US/Eastern Elev: 452 ft

Show me the last for .
Show Decoded

2017-11-17 15:54 METAR KIZG 172054Z AUTO 23003KT 10SM CLR 01/M07 A2985 RMK AO2 SLP114 T00061072
                 53014 =
2017-11-17 14:54 METAR KIZG 171954Z AUTO VRB04KT 10SM CLR 02/M06 A2984 RMK AO2 SLP108 T00221061 =
2017-11-17 13:54 METAR KIZG 171854Z AUTO 28009G17KT 10SM CLR 02/M06 A2982 RMK AO2 SLP102
                 T00221056 =
2017-11-17 12:54 METAR KIZG 171754Z AUTO 28011G21KT 10SM CLR 03/M06 A2981 RMK AO2 SLP099
                 T00281056 10033 20011 55000 =
2017-11-17 11:54 METAR KIZG 171654Z AUTO 28009G20KT 180V300 10SM CLR 03/M04 A2980 RMK AO2 SLP095
                 T00281044 =
2017-11-17 10:54 METAR KIZG 171554Z AUTO 29007G17KT 190V360 10SM CLR 02/M04 A2981 RMK AO2 SLP100
                 T00221039 =
2017-11-17 09:54 METAR KIZG 171454Z AUTO 27010G20KT 230V310 10SM BKN050 02/M04 A2981 RMK AO2
                 SLP099 T00171039 51021 =
2017-11-17 08:54 METAR KIZG 171354Z AUTO 27011G22KT 10SM FEW050 02/M04 A2979 RMK AO2 PK WND
                 29028/1315 SLP094 T00171039 =
2017-11-17 07:54 METAR KIZG 171254Z AUTO 28012G25KT 10SM OVC100 02/M04 A2977 RMK AO2 SLP087
                 T00171044 =
2017-11-17 06:54 METAR KIZG 171154Z AUTO 28010G21KT 10SM OVC100 02/M04 A2975 RMK AO2 SLP078 70038
                 I6000 T00171044 10028 21011 53030 =
2017-11-17 05:54 METAR KIZG 171054Z AUTO 28011G20KT 240V300 10SM OVC100 02/M03 A2971 RMK AO2
                 SLP065 T00221033 =
2017-11-17 04:54 METAR KIZG 170954Z AUTO 28009G21KT 10SM OVC095 02/M02 A2968 RMK AO2 SLP055
                 T00221022 =
2017-11-17 03:54 METAR KIZG 170854Z AUTO 28007KT 250V310 10SM FEW100 02/M01 A2966 RMK AO2 SLP048
                 I3000 T00221011 53012 =
2017-11-17 02:54 METAR KIZG 170754Z AUTO 30010G18KT 10SM CLR 03/00 A2964 RMK AO2 SLP042 T00280000
                 =
2017-11-17 01:54 METAR KIZG 170654Z AUTO 29008G16KT 10SM CLR 02/01 A2963 RMK AO2 SLP038 I1000
                 T00220011 =
2017-11-17 01:25 METAR KIZG 170625Z AUTO 25005KT 5SM BR SCT001 M01/M01 A2962 RMK AO2 I1000
                 T10061006 =
2017-11-17 01:21 METAR KIZG 170621Z AUTO 00000KT 2 1/2SM BR BKN001 M01/M01 A2962 RMK AO2 I1000
                 T10061006 =
2017-11-17 01:18 METAR KIZG 170618Z AUTO 00000KT 1SM BR VV001 M01/M01 A2962 RMK AO2 I1000
                 T10061006 =
2017-11-17 00:54 METAR KIZG 170554Z AUTO 00000KT 1/4SM FZFG VV002 M01/M01 A2962 RMK AO2 SLP035
                 I1000 I6000 T10061006 10022 21011 56010 =
2017-11-17 00:44 METAR KIZG 170544Z AUTO 00000KT 1/4SM FZFG VV002 M01/M01 A2962 RMK AO2 I1000
                 T10061006 =
2017-11-16 23:54 METAR KIZG 170454Z AUTO 00000KT 1/2SM FZFG VV003 M01/M01 A2963 RMK AO2 SLP039
                 I1000 T10061006 400221044 =
2017-11-16 23:38 METAR KIZG 170438Z AUTO 00000KT 1/2SM FZFG VV002 M01/M01 A2963 RMK AO2 I1000
                 T10061006 =
2017-11-16 23:29 METAR KIZG 170429Z AUTO 00000KT 1 1/4SM BR BKN002 M01/M01 A2963 RMK AO2 VIS
                 3/4V3 T10061006 =
2017-11-16 23:20 METAR KIZG 170420Z AUTO 00000KT 2SM BR BKN002 M01/M01 A2963 RMK AO2 T10111011 =
2017-11-16 23:14 METAR KIZG 170414Z AUTO 00000KT 1 3/4SM BR SCT002 M01/M01 A2963 RMK AO2
                 T10111011 =
2017-11-16 22:54 METAR KIZG 170354Z AUTO 00000KT 3SM BR FEW002 SCT110 M01/M01 A2964 RMK AO2
                 SLP042 T10061006 =
2017-11-16 22:44 METAR KIZG 170344Z AUTO 00000KT 1 3/4SM BR FEW002 FEW009 BKN110 M01/M01 A2965
                 RMK AO2 VIS 1V5 T10061006 =
2017-11-16 22:29 METAR KIZG 170329Z AUTO 00000KT 9SM FEW002 OVC110 01/01 A2965 RMK AO2 T00060006
                 =
2017-11-16 22:16 METAR KIZG 170316Z AUTO 00000KT 2 1/2SM BR FEW001 SCT009 OVC110 01/01 A2965 RMK
                 AO2 T00060006 =
2017-11-16 21:54 METAR KIZG 170254Z AUTO 25003KT 8SM OVC009 01/01 A2965 RMK AO2 SLP046 T00110011
                 58020 =
2017-11-16 20:54 METAR KIZG 170154Z AUTO 24003KT 10SM OVC009 02/02 A2968 RMK AO2 CIG 009V013
                 SLP054 T00170017 =
2017-11-16 20:04 METAR KIZG 170104Z AUTO 18003KT 10SM BKN008 OVC014 02/02 A2969 RMK AO2 T00170017
                 =
2017-11-16 19:54 METAR KIZG 170054Z AUTO 00000KT 10SM SCT008 OVC014 02/02 A2969 RMK AO2 SLP059
                 T00170017 =
2017-11-16 19:41 METAR KIZG 170041Z AUTO 00000KT 10SM SCT008 OVC014 02/02 A2969 RMK AO2 T00170017
                 =
2017-11-16 19:34 METAR KIZG 170034Z AUTO 00000KT 10SM BKN008 OVC013 02/02 A2969 RMK AO2 T00170017
                 =
2017-11-16 19:27 METAR KIZG 170027Z AUTO 00000KT 2 1/2SM BR BKN008 OVC013 02/02 A2970 RMK AO2
                 T00170017 =
2017-11-16 18:54 METAR KIZG 162354Z AUTO 00000KT 10SM BKN006 OVC014 02/02 A2971 RMK AO2 SLP066
                 60022 T00170017 10017 20011 56015 =
2017-11-16 18:42 METAR KIZG 162342Z AUTO 00000KT 10SM BKN006 OVC014 02/02 A2971 RMK AO2 T00170017
                 =
2017-11-16 18:13 METAR KIZG 162313Z AUTO 29003KT 10SM SCT004 OVC015 02/02 A2970 RMK AO2 T00170017
                 =
2017-11-16 17:54 METAR KIZG 162254Z AUTO 30003KT 10SM BKN004 OVC015 02/02 A2972 RMK AO2
                 UPB18E20RAB20E35 SLP070 P0000 T00170017 =
2017-11-16 16:54 METAR KIZG 162154Z AUTO 00000KT 10SM BKN004 OVC015 02/02 A2974 RMK AO2
                 RAE29UPB14E16B20E28 SLP077 P0001 T00170017 =
2017-11-16 16:17 METAR KIZG 162117Z AUTO 32003KT 7SM -RA BKN004 OVC015 02/02 A2974 RMK AO2
                 UPB14E16 CIG 002V006 P0001 T00170017 =

Support USWX by starting your Amazon purchase here.